Time;durP1;ratioP1;P1;durP2;ratioP2;P2;SDS_P1;SDS_P2;PMS_P1;PMS_P2;Temp;Humidity;BMP_temperature;BMP_pressure;BME280_temperature;BME280_humidity;BME280_pressure;Samples;Min_cycle;Max_cycle;Signal;HPM_P1;HPM_P2
2021/10/22 00:00:48;;;;;;;1.60;1.30;;;8.00;98.20;;;;;;5018371;28;20479;-77
2021/10/22 00:03:14;;;;;;;1.60;1.30;;;8.00;98.20;;;;;;5039486;28;20875;-78
2021/10/22 00:05:41;;;;;;;1.60;1.30;;;8.00;98.20;;;;;;5022284;28;20463;-78
2021/10/22 00:08:08;;;;;;;1.60;1.30;;;8.00;98.20;;;;;;5033389;28;20491;-74
2021/10/22 00:10:35;;;;;;;1.60;1.30;;;8.00;98.20;;;;;;5025092;28;20969;-78
2021/10/22 00:13:02;;;;;;;1.60;1.20;;;8.00;98.20;;;;;;5032448;28;20497;-74
2021/10/22 00:15:29;;;;;;;1.60;1.20;;;8.00;98.20;;;;;;5022301;28;20475;-75
2021/10/22 00:17:57;;;;;;;1.60;1.20;;;8.00;98.20;;;;;;5028097;28;21018;-78
2021/10/22 00:20:24;;;;;;;1.60;1.30;;;8.00;98.20;;;;;;5025877;28;20585;-78
2021/10/22 00:22:51;;;;;;;1.60;1.30;;;8.00;98.20;;;;;;5015840;28;20529;-75
2021/10/22 00:25:19;;;;;;;1.60;1.20;;;8.00;98.20;;;;;;5017482;28;20468;-75
2021/10/22 00:27:46;;;;;;;1.60;1.30;;;8.00;98.20;;;;;;5030282;28;20479;-75
2021/10/22 00:30:13;;;;;;;1.60;1.30;;;8.00;98.20;;;;;;5018891;28;20990;-78
2021/10/22 00:32:39;;;;;;;1.60;1.20;;;8.00;98.20;;;;;;5030014;28;20485;-78
2021/10/22 00:35:08;;;;;;;1.60;1.40;;;8.00;98.20;;;;;;5027746;28;20509;-78
2021/10/22 00:37:35;;;;;;;1.60;1.33;;;8.00;98.20;;;;;;5025513;28;20487;-77
2021/10/22 00:40:02;;;;;;;1.60;1.30;;;8.00;98.20;;;;;;5021227;28;20467;-77
2021/10/22 00:42:28;;;;;;;1.60;1.30;;;8.00;98.20;;;;;;5026526;28;20486;-78
2021/10/22 00:44:55;;;;;;;1.60;1.20;;;8.00;98.20;;;;;;5023288;28;20468;-78
2021/10/22 00:47:22;;;;;;;1.60;1.20;;;8.00;98.20;;;;;;5012134;28;20479;-77
2021/10/22 00:49:49;;;;;;;1.60;1.40;;;8.00;98.20;;;;;;5024645;28;20470;-77
2021/10/22 00:52:22;;;;;;;1.60;1.20;;;8.00;98.20;;;;;;5010057;28;20474;-78
2021/10/22 00:54:49;;;;;;;1.60;1.30;;;8.00;98.20;;;;;;5015733;28;20522;-78
2021/10/22 00:57:16;;;;;;;1.63;1.40;;;8.00;98.20;;;;;;5003414;28;20854;-78
2021/10/22 00:59:43;;;;;;;1.60;1.20;;;7.90;98.20;;;;;;5025091;28;20472;-75
2021/10/22 01:02:10;;;;;;;1.60;1.30;;;7.90;98.20;;;;;;5023266;28;21041;-75
2021/10/22 01:04:39;;;;;;;1.60;1.30;;;7.90;98.20;;;;;;5016134;28;20824;-78
2021/10/22 01:07:06;;;;;;;1.60;1.20;;;7.80;98.20;;;;;;5011082;28;21013;-78
2021/10/22 01:09:35;;;;;;;1.60;1.30;;;7.80;98.20;;;;;;5026136;28;20529;-77
2021/10/22 01:12:01;;;;;;;1.60;1.30;;;7.80;98.20;;;;;;5007373;28;21065;-78
2021/10/22 01:14:29;;;;;;;1.60;1.30;;;7.80;98.20;;;;;;5022455;28;20564;-78
2021/10/22 01:16:56;;;;;;;1.60;1.10;;;7.80;98.20;;;;;;5017139;28;20482;-78
2021/10/22 01:19:23;;;;;;;1.60;1.23;;;7.80;98.20;;;;;;5026629;28;20467;-78
2021/10/22 01:21:51;;;;;;;1.60;1.37;;;7.70;98.20;;;;;;5020627;28;20497;-77
2021/10/22 01:24:19;;;;;;;1.60;1.30;;;7.70;98.20;;;;;;5030397;28;20479;-77
2021/10/22 01:26:46;;;;;;;1.60;1.20;;;7.60;98.20;;;;;;5016375;28;20852;-77
2021/10/22 01:29:13;;;;;;;1.60;1.30;;;7.60;98.20;;;;;;5032389;28;20467;-77
2021/10/22 01:31:39;;;;;;;1.70;1.60;;;7.50;98.20;;;;;;5017707;28;21006;-77
2021/10/22 01:34:06;;;;;;;1.60;1.20;;;7.50;98.20;;;;;;5033961;28;20459;-75
2021/10/22 01:36:34;;;;;;;1.60;1.30;;;7.50;98.20;;;;;;5012320;28;20860;-77
2021/10/22 01:39:03;;;;;;;1.60;1.30;;;7.50;98.20;;;;;;5032062;28;20521;-77
2021/10/22 01:41:29;;;;;;;1.60;1.30;;;7.50;98.20;;;;;;5009845;28;20484;-76
2021/10/22 01:44:00;;;;;;;1.60;1.30;;;7.40;98.20;;;;;;5020659;28;20462;-77
2021/10/22 01:46:27;;;;;;;1.60;1.30;;;7.40;98.20;;;;;;5012862;28;20488;-77
2021/10/22 01:48:54;;;;;;;1.60;1.30;;;7.40;98.20;;;;;;5034150;28;20477;-77
2021/10/22 01:51:22;;;;;;;1.60;1.27;;;7.30;98.20;;;;;;5014277;28;20479;-77
2021/10/22 01:53:48;;;;;;;1.60;1.30;;;7.30;98.20;;;;;;5032795;28;20477;-77
2021/10/22 01:56:17;;;;;;;1.60;1.23;;;7.40;98.20;;;;;;5012088;28;20475;-78
2021/10/22 01:58:43;;;;;;;1.60;1.30;;;7.30;98.20;;;;;;5028609;28;20475;-77
2021/10/22 02:01:10;;;;;;;1.60;1.30;;;7.30;98.20;;;;;;5010121;28;20953;-77
2021/10/22 02:03:37;;;;;;;1.60;1.20;;;7.30;98.20;;;;;;5020660;28;20474;-77
2021/10/22 02:06:03;;;;;;;1.60;1.30;;;7.30;98.20;;;;;;5013664;28;20970;-77
2021/10/22 02:08:30;;;;;;;1.60;1.30;;;7.20;98.20;;;;;;5023371;28;20492;-77
2021/10/22 02:10:57;;;;;;;1.60;1.23;;;7.20;98.20;;;;;;5015798;28;20494;-77
2021/10/22 02:13:25;;;;;;;1.60;1.30;;;7.20;98.20;;;;;;5026807;28;20550;-77
2021/10/22 02:15:52;;;;;;;1.60;1.30;;;7.20;98.20;;;;;;5015703;28;20463;-77
2021/10/22 02:18:19;;;;;;;1.60;1.30;;;7.10;98.20;;;;;;5022110;28;20997;-77
2021/10/22 02:20:45;;;;;;;1.60;1.30;;;7.10;98.20;;;;;;5020767;28;20479;-77
2021/10/22 02:23:12;;;;;;;3.93;3.53;;;7.10;98.20;;;;;;5030028;28;20484;-77
2021/10/22 02:25:39;;;;;;;1.60;1.30;;;7.10;98.20;;;;;;5022667;28;20464;-77
2021/10/22 02:28:06;;;;;;;1.60;1.30;;;7.00;98.20;;;;;;5012084;28;20533;-77
2021/10/22 02:30:34;;;;;;;1.60;1.30;;;7.00;98.20;;;;;;5022428;28;20459;-77
2021/10/22 02:33:01;;;;;;;1.60;1.30;;;7.00;98.20;;;;;;5007752;28;20498;-77
2021/10/22 02:35:28;;;;;;;1.60;1.30;;;7.00;98.20;;;;;;5018921;28;20554;-77
2021/10/22 02:37:55;;;;;;;1.63;1.30;;;6.90;98.20;;;;;;5034308;28;20862;-77
2021/10/22 02:40:22;;;;;;;1.60;1.30;;;6.90;98.20;;;;;;5026138;28;20838;-77
2021/10/22 02:42:49;;;;;;;1.60;1.37;;;6.90;98.20;;;;;;5013797;28;20487;-77
2021/10/22 02:45:16;;;;;;;1.60;1.40;;;6.90;98.20;;;;;;5021834;28;20469;-77
2021/10/22 02:47:44;;;;;;;1.60;1.20;;;6.90;98.20;;;;;;5014532;28;20482;-77
2021/10/22 02:50:11;;;;;;;1.60;1.30;;;6.90;98.20;;;;;;5025345;28;20471;-77
2021/10/22 02:52:38;;;;;;;1.60;1.30;;;6.90;98.20;;;;;;5032952;28;20482;-77
2021/10/22 02:55:05;;;;;;;1.60;1.27;;;6.90;98.20;;;;;;5028712;28;20463;-77
2021/10/22 02:57:32;;;;;;;1.63;1.30;;;6.80;98.20;;;;;;5015120;28;20483;-77
2021/10/22 02:59:59;;;;;;;1.60;1.30;;;6.80;98.20;;;;;;5023895;28;20973;-77
2021/10/22 03:02:27;;;;;;;1.60;1.30;;;6.80;98.20;;;;;;5023514;28;21004;-77
2021/10/22 03:04:56;;;;;;;1.60;1.30;;;6.80;98.20;;;;;;5027030;28;20463;-77
2021/10/22 03:07:22;;;;;;;1.63;1.43;;;6.70;98.20;;;;;;5016842;28;20545;-77
2021/10/22 03:09:49;;;;;;;1.60;1.30;;;6.70;98.20;;;;;;5019071;28;20479;-77
2021/10/22 03:12:16;;;;;;;1.70;1.40;;;6.70;98.20;;;;;;5019622;28;20482;-75
2021/10/22 03:14:43;;;;;;;1.70;1.40;;;6.70;98.20;;;;;;5027023;28;20868;-76
2021/10/22 03:17:10;;;;;;;1.60;1.20;;;6.70;98.20;;;;;;5019975;28;20482;-76
2021/10/22 03:19:37;;;;;;;1.60;1.30;;;6.70;98.20;;;;;;5024390;28;20485;-76
2021/10/22 03:22:05;;;;;;;1.70;1.30;;;6.70;98.20;;;;;;5018821;28;20478;-76
2021/10/22 03:24:32;;;;;;;2.03;1.83;;;6.60;98.20;;;;;;5023012;28;20459;-76
2021/10/22 03:26:58;;;;;;;1.60;1.30;;;6.60;98.20;;;;;;5022110;28;20482;-76
2021/10/22 03:29:25;;;;;;;1.60;1.40;;;6.60;98.20;;;;;;5030652;28;20475;-76
2021/10/22 03:31:52;;;;;;;1.60;1.30;;;6.60;98.20;;;;;;5019761;28;20478;-77
2021/10/22 03:34:19;;;;;;;1.60;1.27;;;6.60;98.20;;;;;;5026501;28;20467;-76
2021/10/22 03:36:46;;;;;;;1.70;1.30;;;6.60;98.20;;;;;;5017985;28;20482;-76
2021/10/22 03:39:14;;;;;;;1.60;1.30;;;6.50;98.20;;;;;;5030878;28;20475;-77
2021/10/22 03:41:41;;;;;;;1.60;1.30;;;6.50;98.20;;;;;;5018410;28;20491;-77
2021/10/22 03:44:07;;;;;;;1.70;1.30;;;6.50;98.20;;;;;;5028436;28;21080;-76
2021/10/22 03:46:34;;;;;;;1.60;1.30;;;6.50;98.20;;;;;;5007905;28;20486;-77
2021/10/22 03:49:01;;;;;;;1.70;1.50;;;6.50;98.20;;;;;;5018838;28;20491;-76
2021/10/22 03:51:28;;;;;;;1.60;1.30;;;6.40;98.20;;;;;;5010885;28;20475;-76
2021/10/22 03:53:55;;;;;;;1.60;1.23;;;6.40;98.20;;;;;;5017075;28;20482;-76
2021/10/22 03:56:23;;;;;;;1.73;1.63;;;6.40;98.20;;;;;;5011303;28;20505;-76
2021/10/22 03:58:50;;;;;;;1.63;1.40;;;6.40;98.20;;;;;;5036114;28;20561;-76
2021/10/22 04:01:17;;;;;;;1.60;1.40;;;6.40;98.20;;;;;;5013052;28;20558;-77
2021/10/22 04:03:44;;;;;;;1.63;1.30;;;6.40;98.20;;;;;;5025473;28;20486;-77
2021/10/22 04:06:11;;;;;;;1.67;1.40;;;6.40;98.20;;;;;;5014262;28;20483;-76
2021/10/22 04:08:37;;;;;;;1.70;1.30;;;6.40;98.20;;;;;;5023460;28;20511;-75
2021/10/22 04:11:05;;;;;;;1.63;1.40;;;6.40;98.20;;;;;;5008787;28;20475;-76
2021/10/22 04:13:33;;;;;;;1.60;1.30;;;6.40;98.20;;;;;;5023575;28;20464;-77
2021/10/22 04:15:59;;;;;;;1.60;1.30;;;6.40;98.20;;;;;;5007736;28;20492;-76
2021/10/22 04:18:26;;;;;;;1.70;1.43;;;6.40;98.20;;;;;;5039154;28;20479;-76
2021/10/22 04:20:53;;;;;;;1.60;1.30;;;6.40;98.20;;;;;;5013907;28;20466;-76
2021/10/22 04:23:20;;;;;;;1.60;1.30;;;6.40;98.20;;;;;;5036858;28;20463;-78
2021/10/22 04:25:49;;;;;;;1.60;1.40;;;6.40;98.20;;;;;;5017237;28;20965;-78
2021/10/22 04:28:16;;;;;;;1.67;1.40;;;6.40;98.20;;;;;;5039971;28;21061;-77
2021/10/22 04:30:44;;;;;;;1.60;1.30;;;6.40;98.20;;;;;;5021291;28;20465;-77
2021/10/22 04:33:10;;;;;;;1.70;1.40;;;6.40;98.20;;;;;;5031034;28;20502;-78
2021/10/22 04:35:37;;;;;;;1.70;1.27;;;6.40;98.20;;;;;;5021658;28;20464;-78
2021/10/22 04:40:30;;;;;;;1.60;1.30;;;6.40;98.20;;;;;;5029267;28;20973;-78
2021/10/22 04:41:03;;;;;;;1.60;1.30;;;6.40;98.20;;;;;;5014224;28;20550;-77
2021/10/22 04:43:30;;;;;;;1.60;1.30;;;6.40;98.20;;;;;;5034733;28;20467;-77
2021/10/22 04:45:58;;;;;;;1.60;1.30;;;6.40;98.20;;;;;;5010143;28;20469;-78
2021/10/22 04:48:25;;;;;;;1.63;1.33;;;6.40;98.20;;;;;;5035720;28;20848;-77
2021/10/22 04:50:52;;;;;;;1.60;1.30;;;6.40;98.20;;;;;;5011423;28;20550;-79
2021/10/22 04:53:22;;;;;;;1.60;1.30;;;6.50;98.20;;;;;;5013873;28;20491;-78
2021/10/22 04:55:49;;;;;;;1.63;1.30;;;6.50;98.20;;;;;;5014321;28;20677;-77
2021/10/22 04:58:16;;;;;;;1.63;1.30;;;6.40;98.20;;;;;;5037073;28;20488;-78
2021/10/22 05:00:43;;;;;;;1.60;1.30;;;6.40;98.20;;;;;;5020145;28;20468;-78
2021/10/22 05:03:11;;;;;;;1.60;1.30;;;6.40;98.20;;;;;;5024980;28;20483;-78
2021/10/22 05:05:38;;;;;;;1.70;1.40;;;6.40;98.20;;;;;;5024011;28;20474;-78
2021/10/22 05:08:05;;;;;;;1.60;1.30;;;6.40;98.20;;;;;;5024914;28;20879;-78
2021/10/22 05:10:32;;;;;;;1.60;1.33;;;6.40;98.20;;;;;;5018277;28;20468;-77
2021/10/22 05:12:59;;;;;;;1.60;1.30;;;6.40;98.20;;;;;;5020637;28;20836;-78
2021/10/22 05:15:26;;;;;;;1.60;1.30;;;6.40;98.20;;;;;;5025187;28;20494;-77
2021/10/22 05:17:53;;;;;;;1.70;1.50;;;6.40;98.20;;;;;;5027526;28;20488;-77
2021/10/22 05:20:21;;;;;;;1.70;1.50;;;6.40;98.20;;;;;;5025659;28;20559;-77
2021/10/22 05:22:48;;;;;;;1.63;1.30;;;6.40;98.20;;;;;;5024571;28;20474;-76
2021/10/22 05:25:17;;;;;;;1.60;1.20;;;6.40;98.20;;;;;;5027413;28;20478;-77
2021/10/22 05:27:44;;;;;;;1.60;1.30;;;6.40;98.20;;;;;;5027220;28;20493;-78
2021/10/22 05:30:11;;;;;;;1.60;1.40;;;6.40;98.20;;;;;;5020095;28;20463;-76
2021/10/22 05:32:38;;;;;;;1.60;1.30;;;6.40;98.20;;;;;;5018896;28;20463;-77
2021/10/22 05:35:05;;;;;;;1.63;1.37;;;6.40;98.20;;;;;;5024307;28;20477;-77
2021/10/22 05:37:33;;;;;;;1.60;1.40;;;6.40;98.20;;;;;;5024457;28;20870;-78
2021/10/22 05:40:00;;;;;;;1.60;1.30;;;6.40;98.20;;;;;;5023432;28;20474;-77
2021/10/22 05:42:27;;;;;;;1.60;1.30;;;6.40;98.20;;;;;;5022035;28;20517;-77
2021/10/22 05:44:54;;;;;;;1.60;1.30;;;6.40;98.20;;;;;;5026304;28;20895;-76
2021/10/22 05:47:21;;;;;;;1.67;1.43;;;6.50;98.20;;;;;;5029270;28;20497;-77
2021/10/22 05:49:47;;;;;;;1.60;1.30;;;6.40;98.20;;;;;;5030902;28;20487;-77
2021/10/22 05:52:16;;;;;;;1.67;1.40;;;6.50;98.20;;;;;;5029982;28;20553;-77
2021/10/22 05:54:50;;;;;;;1.70;1.50;;;6.50;98.20;;;;;;5029415;28;20463;-77
2021/10/22 05:57:17;;;;;;;1.60;1.30;;;6.50;98.20;;;;;;5028528;28;20491;-77
2021/10/22 05:59:43;;;;;;;1.60;1.30;;;6.50;98.20;;;;;;5029019;28;20834;-78
2021/10/22 06:02:10;;;;;;;1.60;1.30;;;6.50;98.20;;;;;;5020436;28;20462;-77
2021/10/22 06:04:37;;;;;;;1.60;1.30;;;6.50;98.20;;;;;;5028781;28;20463;-76
2021/10/22 06:07:04;;;;;;;1.60;1.30;;;6.50;98.20;;;;;;5028388;28;20870;-76
2021/10/22 06:09:31;;;;;;;1.60;1.30;;;6.50;98.20;;;;;;5026541;28;20490;-77
2021/10/22 06:11:59;;;;;;;1.70;1.50;;;6.50;98.20;;;;;;5028206;28;20463;-77
2021/10/22 06:14:26;;;;;;;1.67;1.30;;;6.50;98.20;;;;;;5023973;28;20814;-77
2021/10/22 06:16:53;;;;;;;1.60;1.30;;;6.50;98.20;;;;;;5026850;28;21099;-78
2021/10/22 06:19:25;;;;;;;1.63;1.30;;;6.50;98.20;;;;;;5023136;28;20947;-76
2021/10/22 06:24:37;;;;;;;1.60;1.30;;;6.50;98.20;;;;;;5023328;28;20451;-77
2021/10/22 06:27:05;;;;;;;1.60;1.30;;;6.60;98.20;;;;;;5023349;28;20518;-77
2021/10/22 06:29:33;;;;;;;1.60;1.30;;;6.60;98.20;;;;;;5016821;28;20484;-77
2021/10/22 06:32:01;;;;;;;1.60;1.30;;;6.60;98.20;;;;;;5018627;28;21030;-77
2021/10/22 06:34:28;;;;;;;1.60;1.30;;;6.60;98.20;;;;;;5023542;28;20837;-77
2021/10/22 06:36:55;;;;;;;1.60;1.30;;;6.60;98.20;;;;;;5020305;28;20858;-77
2021/10/22 06:39:22;;;;;;;1.60;1.30;;;6.60;98.20;;;;;;5015945;28;20460;-77
2021/10/22 06:41:50;;;;;;;1.60;1.40;;;6.70;98.20;;;;;;5021561;28;20471;-77
2021/10/22 06:44:23;;;;;;;1.60;1.30;;;6.70;98.20;;;;;;5019032;28;20967;-77
2021/10/22 06:46:50;;;;;;;1.60;1.30;;;6.70;98.20;;;;;;5018830;28;20482;-77
2021/10/22 06:49:16;;;;;;;1.60;1.30;;;6.80;98.20;;;;;;5017276;28;20492;-77
2021/10/22 06:51:43;;;;;;;1.67;1.40;;;6.80;98.20;;;;;;5024271;28;20474;-77
2021/10/22 06:54:10;;;;;;;1.63;1.40;;;6.90;98.20;;;;;;5018866;28;20471;-77
2021/10/22 06:56:37;;;;;;;1.70;1.40;;;7.00;98.20;;;;;;5029497;28;20880;-77
2021/10/22 06:59:04;;;;;;;1.63;1.30;;;7.00;98.20;;;;;;5028350;28;20478;-77
2021/10/22 07:01:32;;;;;;;1.60;1.30;;;7.10;98.20;;;;;;5019712;28;20524;-77
2021/10/22 07:03:59;;;;;;;1.63;1.30;;;7.20;98.20;;;;;;5024082;28;20467;-76
2021/10/22 07:09:10;;;;;;;1.60;1.30;;;7.30;98.20;;;;;;5024017;28;20862;-77
2021/10/22 07:11:37;;;;;;;1.60;1.30;;;7.40;98.20;;;;;;5023727;28;20539;-78
2021/10/22 07:14:06;;;;;;;1.60;1.30;;;7.50;98.20;;;;;;5024537;28;20487;-78
2021/10/22 07:16:37;;;;;;;1.60;1.30;;;7.60;98.20;;;;;;5028316;28;21202;-78
2021/10/22 07:19:04;;;;;;;1.60;1.30;;;7.70;98.20;;;;;;5027937;28;20474;-77
2021/10/22 07:21:32;;;;;;;1.60;1.27;;;7.70;98.20;;;;;;5027624;28;20836;-76
2021/10/22 07:24:01;;;;;;;1.60;1.30;;;7.80;98.20;;;;;;5024223;28;20464;-77
2021/10/22 07:26:28;;;;;;;1.60;1.30;;;7.90;98.20;;;;;;5027144;28;20605;-77
2021/10/22 07:28:55;;;;;;;1.60;1.30;;;8.00;98.20;;;;;;5026987;28;20483;-77
2021/10/22 07:31:21;;;;;;;1.60;1.30;;;8.00;98.20;;;;;;5022590;28;20468;-77
2021/10/22 07:33:50;;;;;;;1.60;1.30;;;8.10;98.20;;;;;;5028240;28;20486;-78
2021/10/22 07:36:17;;;;;;;1.60;1.30;;;8.20;98.20;;;;;;5020924;28;20468;-77
2021/10/22 07:38:44;;;;;;;1.60;1.30;;;8.30;98.20;;;;;;5028327;28;20517;-78
2021/10/22 07:41:12;;;;;;;1.60;1.20;;;8.40;98.20;;;;;;5027748;28;20471;-76
2021/10/22 07:43:39;;;;;;;1.60;1.20;;;8.50;98.20;;;;;;5025741;28;20463;-74
2021/10/22 07:46:06;;;;;;;1.60;1.20;;;8.60;98.20;;;;;;5017462;28;20467;-76
2021/10/22 07:48:33;;;;;;;1.60;1.20;;;8.60;98.20;;;;;;5021273;28;20518;-75
2021/10/22 07:51:02;;;;;;;1.60;1.20;;;8.70;98.20;;;;;;5020120;28;20467;-77
2021/10/22 07:53:28;;;;;;;1.70;1.30;;;8.80;98.20;;;;;;5016917;28;20468;-77
2021/10/22 07:55:55;;;;;;;1.60;1.20;;;8.90;98.20;;;;;;5021099;28;20487;-77
2021/10/22 07:58:22;;;;;;;1.60;1.20;;;8.90;98.20;;;;;;5016537;28;20498;-78
2021/10/22 08:00:49;;;;;;;1.60;1.20;;;8.80;98.20;;;;;;5021328;28;20463;-79
2021/10/22 08:03:15;;;;;;;1.63;1.33;;;8.90;98.20;;;;;;5016234;28;20826;-79
2021/10/22 08:05:43;;;;;;;1.60;1.20;;;9.00;98.20;;;;;;5016180;28;20798;-79
2021/10/22 08:08:11;;;;;;;2.23;2.00;;;9.00;98.20;;;;;;5021501;28;20486;-78
2021/10/22 08:10:40;;;;;;;1.63;1.40;;;9.00;98.20;;;;;;5024105;28;20463;-80
2021/10/22 08:13:10;;;;;;;2.33;2.13;;;9.00;98.20;;;;;;5016966;28;20464;-79
2021/10/22 08:15:39;;;;;;;1.60;1.30;;;9.00;98.20;;;;;;5017657;28;21288;-78
2021/10/22 08:18:06;;;;;;;1.60;1.30;;;9.10;98.20;;;;;;5018623;28;20486;-79
2021/10/22 08:20:35;;;;;;;1.60;1.20;;;9.20;98.20;;;;;;5016827;28;20463;-78
2021/10/22 08:23:02;;;;;;;1.60;1.20;;;9.40;98.20;;;;;;5012927;28;20471;-78
2021/10/22 08:25:30;;;;;;;1.60;1.20;;;9.50;98.20;;;;;;5015401;28;20491;-77
2021/10/22 08:27:59;;;;;;;1.60;1.20;;;9.60;98.20;;;;;;5017295;28;20503;-78
2021/10/22 08:30:27;;;;;;;1.60;1.20;;;9.70;98.20;;;;;;5018701;28;21014;-78
2021/10/22 08:32:56;;;;;;;1.60;1.20;;;9.80;98.20;;;;;;5021300;28;20482;-79
2021/10/22 08:35:25;;;;;;;1.60;1.20;;;9.90;98.20;;;;;;5024471;28;20998;-79
2021/10/22 08:37:52;;;;;;;1.60;1.20;;;10.10;98.20;;;;;;5021890;28;20489;-81
2021/10/22 08:40:19;;;;;;;1.60;1.10;;;10.20;98.20;;;;;;5021879;28;20460;-79
2021/10/22 08:42:48;;;;;;;1.60;1.20;;;10.30;98.20;;;;;;5018040;28;20455;-77
2021/10/22 08:45:17;;;;;;;1.60;1.20;;;10.40;98.20;;;;;;5014758;28;20448;-78
2021/10/22 08:47:44;;;;;;;1.60;1.10;;;10.50;98.20;;;;;;5015158;28;20480;-75
2021/10/22 08:50:13;;;;;;;1.60;1.10;;;10.60;98.20;;;;;;5018669;28;20817;-78
2021/10/22 08:52:42;;;;;;;2.37;2.17;;;10.60;98.20;;;;;;5017130;28;20593;-77
2021/10/22 08:55:10;;;;;;;1.60;1.20;;;10.70;97.70;;;;;;5020167;28;20954;-77
2021/10/22 08:57:42;;;;;;;1.60;1.10;;;10.60;97.40;;;;;;5018372;28;20659;-79
2021/10/22 09:00:12;;;;;;;1.60;1.10;;;10.60;97.70;;;;;;5020937;28;20878;-78
2021/10/22 09:02:38;;;;;;;1.60;1.10;;;10.50;97.80;;;;;;5014757;28;20471;-77
2021/10/22 09:05:15;;;;;;;1.70;1.53;;;10.50;98.20;;;;;;5016635;28;21084;-78
2021/10/22 09:07:44;;;;;;;1.60;1.20;;;10.50;98.20;;;;;;5021416;28;20497;-78
2021/10/22 09:10:15;;;;;;;1.60;1.20;;;10.50;98.20;;;;;;5018619;28;20526;-78
2021/10/22 09:12:44;;;;;;;1.73;1.63;;;10.50;98.20;;;;;;5016574;28;20474;-79
2021/10/22 09:15:12;;;;;;;1.60;1.17;;;10.50;97.90;;;;;;5018190;28;20958;-78
2021/10/22 09:17:41;;;;;;;1.60;1.20;;;10.50;97.80;;;;;;5025438;28;20499;-78
2021/10/22 09:20:23;;;;;;;1.60;1.10;;;10.60;98.10;;;;;;5021079;28;20491;-79
2021/10/22 09:22:53;;;;;;;1.60;1.10;;;10.60;98.20;;;;;;5024715;28;20466;-79
2021/10/22 09:25:24;;;;;;;1.60;1.20;;;10.60;98.10;;;;;;5018969;28;20474;-80
2021/10/22 09:27:54;;;;;;;1.60;1.20;;;10.60;98.20;;;;;;5014655;28;20566;-79
2021/10/22 09:30:38;;;;;;;1.60;1.00;;;10.60;98.20;;;;;;5017118;28;20502;-79
2021/10/22 09:33:07;;;;;;;1.60;1.10;;;10.60;98.20;;;;;;5026846;28;20594;-78
2021/10/22 09:35:38;;;;;;;1.60;1.10;;;10.70;98.20;;;;;;5030072;28;20463;-80
2021/10/22 09:38:08;;;;;;;1.60;1.10;;;10.80;98.20;;;;;;5029309;28;21009;-79
2021/10/22 09:40:36;;;;;;;1.60;1.10;;;10.80;98.20;;;;;;5029368;28;20998;-80
2021/10/22 09:43:22;;;;;;;1.60;1.10;;;10.80;98.20;;;;;;5027259;28;20459;-80
2021/10/22 09:45:51;;;;;;;1.60;1.20;;;10.80;98.20;;;;;;5026212;28;20857;-79
2021/10/22 09:48:32;;;;;;;1.60;1.20;;;10.90;98.20;;;;;;5029414;28;20487;-79
2021/10/22 09:51:20;;;;;;;1.53;1.10;;;10.90;98.20;;;;;;5028084;28;20490;-79
2021/10/22 09:53:47;;;;;;;1.70;1.10;;;11.10;98.20;;;;;;5027806;28;20470;-78
2021/10/22 09:56:21;;;;;;;1.60;1.20;;;11.20;98.20;;;;;;5027892;28;20467;-78
2021/10/22 09:58:58;;;;;;;1.60;1.10;;;11.40;98.20;;;;;;5027198;28;20962;-78
2021/10/22 10:01:35;;;;;;;1.60;1.10;;;11.50;98.20;;;;;;5009220;28;20475;-78
2021/10/22 10:04:02;;;;;;;1.60;1.10;;;11.60;97.30;;;;;;5017383;28;20470;-77
2021/10/22 10:06:30;;;;;;;1.60;1.00;;;11.60;97.40;;;;;;5016190;28;20495;-77
2021/10/22 10:08:57;;;;;;;1.57;1.10;;;11.60;97.20;;;;;;5017979;28;20478;-79
2021/10/22 10:11:26;;;;;;;1.60;1.10;;;11.60;97.30;;;;;;5011156;28;20465;-79
2021/10/22 10:13:53;;;;;;;1.90;1.20;;;11.60;96.70;;;;;;5021870;28;20474;-77
2021/10/22 10:16:20;;;;;;;1.60;1.00;;;11.60;97.00;;;;;;5018739;28;20485;-77
2021/10/22 10:18:53;;;;;;;1.60;1.10;;;11.60;96.80;;;;;;5018735;28;21054;-78
2021/10/22 10:21:22;;;;;;;1.60;1.20;;;11.60;97.40;;;;;;5019272;28;20470;-77
2021/10/22 10:23:50;;;;;;;1.53;1.10;;;11.50;97.50;;;;;;5022139;28;20467;-78
2021/10/22 10:26:29;;;;;;;1.53;1.07;;;11.50;97.50;;;;;;5025389;28;20466;-77
2021/10/22 10:28:57;;;;;;;1.60;1.10;;;11.60;97.70;;;;;;5022217;28;20467;-78
2021/10/22 10:31:40;;;;;;;1.57;1.00;;;11.70;97.30;;;;;;5016984;28;20464;-78
2021/10/22 10:34:45;;;;;;;1.60;1.20;;;11.80;96.70;;;;;;5019446;28;20469;-78
2021/10/22 10:37:34;;;;;;;1.60;1.10;;;11.90;97.30;;;;;;5014752;28;20491;-78
2021/10/22 10:40:14;;;;;;;1.60;1.17;;;12.00;97.10;;;;;;5023911;28;20455;-80
2021/10/22 10:42:44;;;;;;;1.57;1.10;;;12.10;96.10;;;;;;5028597;28;20900;-79
2021/10/22 10:45:37;;;;;;;1.53;1.10;;;12.20;96.80;;;;;;5022203;28;20558;-79
2021/10/22 10:48:06;;;;;;;1.57;1.10;;;12.20;96.90;;;;;;5027097;28;21053;-79
2021/10/22 10:50:47;;;;;;;1.53;1.03;;;12.30;96.80;;;;;;5028430;28;20730;-78
2021/10/22 10:53:18;;;;;;;1.57;1.00;;;12.40;97.10;;;;;;5028731;28;20489;-76
2021/10/22 10:55:46;;;;;;;1.60;1.10;;;12.50;96.40;;;;;;5023096;28;20502;-80
2021/10/22 10:58:18;;;;;;;1.50;1.00;;;12.60;96.30;;;;;;5028539;28;20487;-79
2021/10/22 11:00:47;;;;;;;1.60;1.10;;;12.60;95.50;;;;;;5015591;28;20466;-78
2021/10/22 11:03:21;;;;;;;1.53;1.10;;;12.60;95.70;;;;;;5024909;28;20467;-79
2021/10/22 11:06:11;;;;;;;1.53;1.00;;;12.60;95.40;;;;;;5027770;28;20917;-77
2021/10/22 11:08:49;;;;;;;1.53;1.00;;;12.70;95.00;;;;;;5027538;28;20467;-80
2021/10/22 11:11:33;;;;;;;1.57;1.00;;;12.80;94.50;;;;;;5018130;28;20482;-79
2021/10/22 11:14:12;;;;;;;1.57;1.00;;;12.80;94.10;;;;;;5027976;28;20873;-77
2021/10/22 11:16:45;;;;;;;1.50;1.10;;;12.70;93.60;;;;;;5016883;28;20481;-78
2021/10/22 11:19:14;;;;;;;1.53;1.00;;;12.80;93.40;;;;;;5032924;28;20490;-79
2021/10/22 11:21:45;;;;;;;1.67;1.23;;;12.80;93.40;;;;;;5021970;28;20489;-80
2021/10/22 11:24:15;;;;;;;1.50;1.00;;;12.80;93.20;;;;;;5021302;28;20462;-78
2021/10/22 11:26:42;;;;;;;2.13;1.93;;;12.80;93.40;;;;;;5021331;28;20552;-77
2021/10/22 11:29:18;;;;;;;1.57;1.10;;;12.70;93.20;;;;;;5033794;28;20843;-75
2021/10/22 11:31:47;;;;;;;1.50;1.00;;;12.70;93.50;;;;;;5014976;28;20865;-75
2021/10/22 11:34:16;;;;;;;1.57;1.10;;;12.80;93.90;;;;;;5028595;28;20478;-78
2021/10/22 11:36:52;;;;;;;1.50;1.00;;;12.90;93.60;;;;;;5021131;28;21012;-74
2021/10/22 11:39:22;;;;;;;1.53;1.00;;;12.80;93.70;;;;;;5028015;28;20458;-75
2021/10/22 11:42:08;;;;;;;1.50;1.00;;;12.80;93.90;;;;;;5022971;28;21004;-76
2021/10/22 11:44:36;;;;;;;1.60;1.10;;;12.80;93.80;;;;;;5022202;28;20468;-76
2021/10/22 11:47:04;;;;;;;1.60;1.07;;;13.00;94.50;;;;;;4999679;28;20490;-76
2021/10/22 11:49:32;;;;;;;1.60;1.10;;;13.10;93.30;;;;;;5016555;28;20839;-76
2021/10/22 11:52:01;;;;;;;1.53;1.00;;;13.10;93.40;;;;;;5018524;28;20559;-75
2021/10/22 11:54:37;;;;;;;1.50;1.00;;;13.10;93.30;;;;;;5023287;28;20467;-78
2021/10/22 11:57:10;;;;;;;1.53;1.00;;;13.00;92.50;;;;;;5017552;28;20858;-75
2021/10/22 11:59:45;;;;;;;1.57;0.90;;;13.00;93.20;;;;;;5021981;28;20486;-75
2021/10/22 12:02:13;;;;;;;1.60;1.00;;;13.00;93.40;;;;;;5012546;28;20474;-77
2021/10/22 12:04:41;;;;;;;1.57;1.10;;;12.90;92.90;;;;;;5020581;28;20900;-76
2021/10/22 12:07:11;;;;;;;1.50;1.00;;;12.90;93.70;;;;;;5018357;28;20933;-76
2021/10/22 12:09:39;;;;;;;1.53;1.00;;;12.80;93.80;;;;;;5019967;28;20463;-78
2021/10/22 12:12:12;;;;;;;1.53;1.00;;;12.70;93.70;;;;;;5021425;28;20486;-76
2021/10/22 12:14:41;;;;;;;1.50;1.00;;;12.70;94.30;;;;;;5015757;28;20468;-77
2021/10/22 12:17:12;;;;;;;1.53;1.00;;;12.70;94.80;;;;;;5019839;28;20524;-76
2021/10/22 12:19:40;;;;;;;1.50;1.10;;;12.60;95.10;;;;;;5023611;28;20464;-77
2021/10/22 12:22:09;;;;;;;1.57;1.00;;;12.60;95.10;;;;;;5021079;28;21014;-77
2021/10/22 12:24:40;;;;;;;1.57;1.00;;;12.60;95.30;;;;;;5022052;28;20502;-77
2021/10/22 12:27:08;;;;;;;1.53;1.10;;;12.60;94.80;;;;;;5022209;28;20752;-78
2021/10/22 12:29:57;;;;;;;1.50;1.00;;;12.50;94.90;;;;;;5021729;28;20475;-79
2021/10/22 12:32:37;;;;;;;1.57;1.00;;;12.50;95.30;;;;;;5025265;28;20831;-78
2021/10/22 12:35:06;;;;;;;1.50;1.00;;;12.50;95.60;;;;;;5022529;28;20487;-78
2021/10/22 12:37:37;;;;;;;1.57;1.10;;;12.50;95.90;;;;;;5025847;28;20536;-78
2021/10/22 12:40:22;;;;;;;1.53;1.00;;;12.50;95.80;;;;;;5014909;28;20494;-77
2021/10/22 12:43:11;;;;;;;1.50;1.00;;;12.50;96.00;;;;;;5000446;28;20490;-77
2021/10/22 12:45:56;;;;;;;1.60;1.10;;;12.50;96.70;;;;;;5017227;28;20548;-76
2021/10/22 12:48:27;;;;;;;1.50;1.00;;;12.60;96.60;;;;;;4997674;28;20515;-77
2021/10/22 12:50:54;;;;;;;1.53;1.00;;;12.60;96.20;;;;;;5008159;28;20496;-77
2021/10/22 12:53:32;;;;;;;1.50;1.00;;;12.60;95.70;;;;;;5034421;28;20615;-78
2021/10/22 12:56:08;;;;;;;1.50;1.00;;;12.60;95.30;;;;;;5009420;28;20577;-78
2021/10/22 12:58:37;;;;;;;1.60;1.10;;;12.70;95.40;;;;;;5032634;28;20476;-78
2021/10/22 13:01:09;;;;;;;1.57;1.10;;;12.70;95.30;;;;;;5009412;28;20544;-77
2021/10/22 13:03:37;;;;;;;1.57;1.10;;;12.60;94.80;;;;;;5027848;28;20468;-76
2021/10/22 13:06:31;;;;;;;1.57;1.00;;;12.70;95.40;;;;;;5011041;28;20506;-77
2021/10/22 13:09:21;;;;;;;1.57;1.07;;;12.70;94.70;;;;;;5025884;28;20467;-78